sensor_id;sensor_type;location;lat;lon;timestamp;temperature;humidity
21403;DHT22;10862;51.886;17.078;2022-08-20T00:00:53;22.60;99.90
21403;DHT22;10862;51.886;17.078;2022-08-20T00:03:22;22.60;99.90
21403;DHT22;10862;51.886;17.078;2022-08-20T00:08:23;22.60;99.90
21403;DHT22;10862;51.886;17.078;2022-08-20T00:10:49;22.50;99.90
21403;DHT22;10862;51.886;17.078;2022-08-20T00:13:16;22.60;99.90
21403;DHT22;10862;51.886;17.078;2022-08-20T00:15:42;22.70;99.90
21403;DHT22;10862;51.886;17.078;2022-08-20T00:18:08;22.60;99.90
21403;DHT22;10862;51.886;17.078;2022-08-20T00:20:37;22.70;99.90
21403;DHT22;10862;51.886;17.078;2022-08-20T00:23:02;22.60;99.90
21403;DHT22;10862;51.886;17.078;2022-08-20T00:25:28;22.50;99.90
21403;DHT22;10862;51.886;17.078;2022-08-20T00:27:57;22.60;99.90
21403;DHT22;10862;51.886;17.078;2022-08-20T00:30:23;22.80;99.90
21403;DHT22;10862;51.886;17.078;2022-08-20T00:32:53;22.80;99.90
21403;DHT22;10862;51.886;17.078;2022-08-20T00:35:20;22.70;99.90
21403;DHT22;10862;51.886;17.078;2022-08-20T00:37:46;22.40;99.90
21403;DHT22;10862;51.886;17.078;2022-08-20T00:40:14;22.40;99.90
21403;DHT22;10862;51.886;17.078;2022-08-20T00:42:44;22.30;99.90
21403;DHT22;10862;51.886;17.078;2022-08-20T00:45:10;22.30;99.90
21403;DHT22;10862;51.886;17.078;2022-08-20T00:47:35;22.30;99.90
21403;DHT22;10862;51.886;17.078;2022-08-20T00:50:04;22.50;99.90
21403;DHT22;10862;51.886;17.078;2022-08-20T00:52:31;22.50;99.90
21403;DHT22;10862;51.886;17.078;2022-08-20T00:54:57;22.40;99.90
21403;DHT22;10862;51.886;17.078;2022-08-20T00:57:25;22.40;99.90
21403;DHT22;10862;51.886;17.078;2022-08-20T00:59:54;22.40;99.90
21403;DHT22;10862;51.886;17.078;2022-08-20T01:02:21;22.20;99.90
21403;DHT22;10862;51.886;17.078;2022-08-20T01:04:47;22.10;99.90
21403;DHT22;10862;51.886;17.078;2022-08-20T01:07:18;22.20;99.90
21403;DHT22;10862;51.886;17.078;2022-08-20T01:09:46;22.10;99.90
21403;DHT22;10862;51.886;17.078;2022-08-20T01:12:13;22.10;99.90
21403;DHT22;10862;51.886;17.078;2022-08-20T01:14:40;22.00;99.90
21403;DHT22;10862;51.886;17.078;2022-08-20T01:17:13;22.00;99.90
21403;DHT22;10862;51.886;17.078;2022-08-20T01:20:07;22.10;99.90
21403;DHT22;10862;51.886;17.078;2022-08-20T01:22:53;22.10;99.90
21403;DHT22;10862;51.886;17.078;2022-08-20T01:28:07;22.10;99.90
21403;DHT22;10862;51.886;17.078;2022-08-20T01:30:33;22.10;99.90
21403;DHT22;10862;51.886;17.078;2022-08-20T01:32:59;22.10;99.90
21403;DHT22;10862;51.886;17.078;2022-08-20T01:35:26;22.00;99.90
21403;DHT22;10862;51.886;17.078;2022-08-20T01:37:53;22.00;99.90
21403;DHT22;10862;51.886;17.078;2022-08-20T01:40:20;21.90;99.90
21403;DHT22;10862;51.886;17.078;2022-08-20T01:42:48;21.80;99.90
21403;DHT22;10862;51.886;17.078;2022-08-20T01:45:14;21.80;99.90
21403;DHT22;10862;51.886;17.078;2022-08-20T01:47:40;21.80;99.90
21403;DHT22;10862;51.886;17.078;2022-08-20T01:50:14;21.80;99.90
21403;DHT22;10862;51.886;17.078;2022-08-20T01:55:07;21.70;99.90
21403;DHT22;10862;51.886;17.078;2022-08-20T01:57:32;21.70;99.90
21403;DHT22;10862;51.886;17.078;2022-08-20T01:59:59;21.80;99.90
21403;DHT22;10862;51.886;17.078;2022-08-20T02:02:26;21.70;99.90
21403;DHT22;10862;51.886;17.078;2022-08-20T02:04:52;21.60;99.90
21403;DHT22;10862;51.886;17.078;2022-08-20T02:07:19;21.40;99.90
21403;DHT22;10862;51.886;17.078;2022-08-20T02:09:45;21.30;99.90
21403;DHT22;10862;51.886;17.078;2022-08-20T02:12:11;21.30;99.90
21403;DHT22;10862;51.886;17.078;2022-08-20T02:14:42;21.30;99.90
21403;DHT22;10862;51.886;17.078;2022-08-20T02:17:08;21.20;99.90
21403;DHT22;10862;51.886;17.078;2022-08-20T02:19:36;21.20;99.90
21403;DHT22;10862;51.886;17.078;2022-08-20T02:22:07;21.30;99.90
21403;DHT22;10862;51.886;17.078;2022-08-20T02:24:35;21.20;99.90
21403;DHT22;10862;51.886;17.078;2022-08-20T02:27:00;21.30;99.90
21403;DHT22;10862;51.886;17.078;2022-08-20T02:29:26;21.30;99.90
21403;DHT22;10862;51.886;17.078;2022-08-20T02:31:51;21.20;99.90
21403;DHT22;10862;51.886;17.078;2022-08-20T02:34:19;21.10;99.90
21403;DHT22;10862;51.886;17.078;2022-08-20T02:36:44;21.10;99.90
21403;DHT22;10862;51.886;17.078;2022-08-20T02:39:10;21.20;99.90
21403;DHT22;10862;51.886;17.078;2022-08-20T02:41:37;21.10;99.90
21403;DHT22;10862;51.886;17.078;2022-08-20T02:44:04;21.20;99.90
21403;DHT22;10862;51.886;17.078;2022-08-20T02:46:30;21.20;99.90
21403;DHT22;10862;51.886;17.078;2022-08-20T02:48:55;21.10;99.90
21403;DHT22;10862;51.886;17.078;2022-08-20T02:51:21;21.10;99.90
21403;DHT22;10862;51.886;17.078;2022-08-20T02:53:46;21.10;99.90
21403;DHT22;10862;51.886;17.078;2022-08-20T02:56:12;21.10;99.90
21403;DHT22;10862;51.886;17.078;2022-08-20T02:58:38;21.10;99.90
21403;DHT22;10862;51.886;17.078;2022-08-20T03:01:05;21.10;99.90
21403;DHT22;10862;51.886;17.078;2022-08-20T03:03:31;21.00;99.90
21403;DHT22;10862;51.886;17.078;2022-08-20T03:05:57;21.10;99.90
21403;DHT22;10862;51.886;17.078;2022-08-20T03:08:23;21.00;99.90
21403;DHT22;10862;51.886;17.078;2022-08-20T03:10:49;21.00;99.90
21403;DHT22;10862;51.886;17.078;2022-08-20T03:13:15;20.90;99.90
21403;DHT22;10862;51.886;17.078;2022-08-20T03:15:43;21.00;99.90
21403;DHT22;10862;51.886;17.078;2022-08-20T03:18:09;21.00;99.90
21403;DHT22;10862;51.886;17.078;2022-08-20T03:20:34;20.90;99.90
21403;DHT22;10862;51.886;17.078;2022-08-20T03:23:00;20.90;99.90
21403;DHT22;10862;51.886;17.078;2022-08-20T03:25:26;20.80;99.90
21403;DHT22;10862;51.886;17.078;2022-08-20T03:27:51;20.80;99.90
21403;DHT22;10862;51.886;17.078;2022-08-20T03:30:17;20.70;99.90
21403;DHT22;10862;51.886;17.078;2022-08-20T03:32:43;20.80;99.90
21403;DHT22;10862;51.886;17.078;2022-08-20T03:35:11;20.80;99.90
21403;DHT22;10862;51.886;17.078;2022-08-20T03:37:37;20.80;99.90
21403;DHT22;10862;51.886;17.078;2022-08-20T03:40:04;20.90;99.90
21403;DHT22;10862;51.886;17.078;2022-08-20T03:42:30;20.90;99.90
21403;DHT22;10862;51.886;17.078;2022-08-20T03:44:55;20.80;99.90
21403;DHT22;10862;51.886;17.078;2022-08-20T03:47:21;20.80;99.90
21403;DHT22;10862;51.886;17.078;2022-08-20T03:49:47;20.70;99.90
21403;DHT22;10862;51.886;17.078;2022-08-20T03:52:13;20.70;99.90
21403;DHT22;10862;51.886;17.078;2022-08-20T03:54:38;20.80;99.90
21403;DHT22;10862;51.886;17.078;2022-08-20T03:57:04;20.80;99.90
21403;DHT22;10862;51.886;17.078;2022-08-20T03:59:30;20.80;99.90
21403;DHT22;10862;51.886;17.078;2022-08-20T04:01:57;20.70;99.90
21403;DHT22;10862;51.886;17.078;2022-08-20T04:04:23;20.70;99.90
21403;DHT22;10862;51.886;17.078;2022-08-20T04:06:49;20.60;99.90
21403;DHT22;10862;51.886;17.078;2022-08-20T04:09:14;20.80;99.90
21403;DHT22;10862;51.886;17.078;2022-08-20T04:11:40;20.80;99.90
21403;DHT22;10862;51.886;17.078;2022-08-20T04:14:06;20.80;99.90
21403;DHT22;10862;51.886;17.078;2022-08-20T04:16:31;20.70;99.90
21403;DHT22;10862;51.886;17.078;2022-08-20T04:18:57;20.80;99.90
21403;DHT22;10862;51.886;17.078;2022-08-20T04:21:23;20.80;99.90
21403;DHT22;10862;51.886;17.078;2022-08-20T04:23:48;20.90;99.90
21403;DHT22;10862;51.886;17.078;2022-08-20T04:26:13;20.90;99.90
21403;DHT22;10862;51.886;17.078;2022-08-20T04:28:40;21.00;99.90
21403;DHT22;10862;51.886;17.078;2022-08-20T04:31:06;21.00;99.90
21403;DHT22;10862;51.886;17.078;2022-08-20T04:33:31;21.00;99.90
21403;DHT22;10862;51.886;17.078;2022-08-20T04:35:57;20.90;99.90
21403;DHT22;10862;51.886;17.078;2022-08-20T04:38:27;21.00;99.90
21403;DHT22;10862;51.886;17.078;2022-08-20T04:40:53;21.00;99.90
21403;DHT22;10862;51.886;17.078;2022-08-20T04:43:32;20.80;99.90
21403;DHT22;10862;51.886;17.078;2022-08-20T04:45:59;20.70;99.90
21403;DHT22;10862;51.886;17.078;2022-08-20T04:48:25;20.70;99.90
21403;DHT22;10862;51.886;17.078;2022-08-20T04:50:53;20.50;99.90
21403;DHT22;10862;51.886;17.078;2022-08-20T04:53:19;20.50;99.90
21403;DHT22;10862;51.886;17.078;2022-08-20T04:55:45;20.60;99.90
21403;DHT22;10862;51.886;17.078;2022-08-20T04:58:12;20.60;99.90
21403;DHT22;10862;51.886;17.078;2022-08-20T05:00:38;20.60;99.90
21403;DHT22;10862;51.886;17.078;2022-08-20T05:03:04;20.60;99.90
21403;DHT22;10862;51.886;17.078;2022-08-20T05:05:31;20.80;99.90
21403;DHT22;10862;51.886;17.078;2022-08-20T05:07:59;20.90;99.90
21403;DHT22;10862;51.886;17.078;2022-08-20T05:10:25;21.00;99.90
21403;DHT22;10862;51.886;17.078;2022-08-20T05:12:50;21.00;99.90
21403;DHT22;10862;51.886;17.078;2022-08-20T05:15:16;21.10;99.90
21403;DHT22;10862;51.886;17.078;2022-08-20T05:17:42;21.20;99.90
21403;DHT22;10862;51.886;17.078;2022-08-20T05:20:10;21.30;99.90
21403;DHT22;10862;51.886;17.078;2022-08-20T05:22:36;21.20;99.90
21403;DHT22;10862;51.886;17.078;2022-08-20T05:25:02;21.20;99.90
21403;DHT22;10862;51.886;17.078;2022-08-20T05:27:28;21.20;99.90
21403;DHT22;10862;51.886;17.078;2022-08-20T05:29:54;21.10;99.90
21403;DHT22;10862;51.886;17.078;2022-08-20T05:32:25;21.20;99.90
21403;DHT22;10862;51.886;17.078;2022-08-20T05:34:50;21.30;99.90
21403;DHT22;10862;51.886;17.078;2022-08-20T05:37:16;21.40;99.90
21403;DHT22;10862;51.886;17.078;2022-08-20T05:39:42;21.30;99.90
21403;DHT22;10862;51.886;17.078;2022-08-20T05:42:08;21.30;99.90
21403;DHT22;10862;51.886;17.078;2022-08-20T05:44:35;21.30;99.90
21403;DHT22;10862;51.886;17.078;2022-08-20T05:47:02;21.40;99.90
21403;DHT22;10862;51.886;17.078;2022-08-20T05:49:28;21.40;99.90
21403;DHT22;10862;51.886;17.078;2022-08-20T05:51:54;21.40;99.90
21403;DHT22;10862;51.886;17.078;2022-08-20T05:54:19;21.40;99.90
21403;DHT22;10862;51.886;17.078;2022-08-20T05:56:45;21.50;99.90
21403;DHT22;10862;51.886;17.078;2022-08-20T05:59:11;21.50;99.90
21403;DHT22;10862;51.886;17.078;2022-08-20T06:01:38;21.60;99.90
21403;DHT22;10862;51.886;17.078;2022-08-20T06:04:04;21.60;99.90
21403;DHT22;10862;51.886;17.078;2022-08-20T06:06:48;21.50;99.90
21403;DHT22;10862;51.886;17.078;2022-08-20T06:09:16;21.50;99.90
21403;DHT22;10862;51.886;17.078;2022-08-20T06:11:42;21.60;99.90
21403;DHT22;10862;51.886;17.078;2022-08-20T06:14:08;21.50;99.90
21403;DHT22;10862;51.886;17.078;2022-08-20T06:16:33;21.70;99.90
21403;DHT22;10862;51.886;17.078;2022-08-20T06:18:59;21.60;99.90
21403;DHT22;10862;51.886;17.078;2022-08-20T06:21:24;21.60;99.90
21403;DHT22;10862;51.886;17.078;2022-08-20T06:23:50;21.60;99.90
21403;DHT22;10862;51.886;17.078;2022-08-20T06:26:16;21.60;99.90
21403;DHT22;10862;51.886;17.078;2022-08-20T06:28:41;21.60;99.90
21403;DHT22;10862;51.886;17.078;2022-08-20T06:31:07;21.70;99.90
21403;DHT22;10862;51.886;17.078;2022-08-20T06:33:33;21.70;99.90
21403;DHT22;10862;51.886;17.078;2022-08-20T06:35:59;21.80;99.90
21403;DHT22;10862;51.886;17.078;2022-08-20T06:38:24;21.80;99.90
21403;DHT22;10862;51.886;17.078;2022-08-20T06:40:51;21.80;99.90
21403;DHT22;10862;51.886;17.078;2022-08-20T06:43:16;21.80;99.90
21403;DHT22;10862;51.886;17.078;2022-08-20T06:45:42;21.90;99.90
21403;DHT22;10862;51.886;17.078;2022-08-20T06:48:09;21.90;99.90
21403;DHT22;10862;51.886;17.078;2022-08-20T06:50:36;21.80;99.90
21403;DHT22;10862;51.886;17.078;2022-08-20T06:53:10;21.80;99.90
21403;DHT22;10862;51.886;17.078;2022-08-20T06:55:36;21.80;99.90
21403;DHT22;10862;51.886;17.078;2022-08-20T06:58:05;21.90;99.90
21403;DHT22;10862;51.886;17.078;2022-08-20T07:00:32;22.20;99.90
21403;DHT22;10862;51.886;17.078;2022-08-20T07:02:58;22.30;99.90
21403;DHT22;10862;51.886;17.078;2022-08-20T07:05:26;22.20;99.90
21403;DHT22;10862;51.886;17.078;2022-08-20T07:07:51;22.30;99.90
21403;DHT22;10862;51.886;17.078;2022-08-20T07:10:18;22.40;99.90
21403;DHT22;10862;51.886;17.078;2022-08-20T07:12:44;22.40;99.90
21403;DHT22;10862;51.886;17.078;2022-08-20T07:15:11;22.60;99.90
21403;DHT22;10862;51.886;17.078;2022-08-20T07:17:37;22.80;99.90
21403;DHT22;10862;51.886;17.078;2022-08-20T07:20:07;22.80;99.90
21403;DHT22;10862;51.886;17.078;2022-08-20T07:22:33;22.80;99.90
21403;DHT22;10862;51.886;17.078;2022-08-20T07:25:04;22.90;99.90
21403;DHT22;10862;51.886;17.078;2022-08-20T07:27:30;23.00;99.90
21403;DHT22;10862;51.886;17.078;2022-08-20T07:29:56;23.00;99.90
21403;DHT22;10862;51.886;17.078;2022-08-20T07:32:41;23.00;99.90
21403;DHT22;10862;51.886;17.078;2022-08-20T07:35:07;23.00;99.90
21403;DHT22;10862;51.886;17.078;2022-08-20T07:37:37;23.20;99.90
21403;DHT22;10862;51.886;17.078;2022-08-20T07:40:03;23.20;99.90
21403;DHT22;10862;51.886;17.078;2022-08-20T07:42:29;23.20;99.90
21403;DHT22;10862;51.886;17.078;2022-08-20T07:44:55;23.30;99.90
21403;DHT22;10862;51.886;17.078;2022-08-20T07:47:21;23.50;99.90
21403;DHT22;10862;51.886;17.078;2022-08-20T07:49:46;23.50;99.90
21403;DHT22;10862;51.886;17.078;2022-08-20T07:52:12;23.50;99.90
21403;DHT22;10862;51.886;17.078;2022-08-20T07:54:38;23.60;99.90
21403;DHT22;10862;51.886;17.078;2022-08-20T07:57:04;23.90;99.90
21403;DHT22;10862;51.886;17.078;2022-08-20T07:59:29;23.90;99.90
21403;DHT22;10862;51.886;17.078;2022-08-20T08:01:55;23.90;99.90
21403;DHT22;10862;51.886;17.078;2022-08-20T08:04:21;24.00;99.90
21403;DHT22;10862;51.886;17.078;2022-08-20T08:06:49;24.10;99.90
21403;DHT22;10862;51.886;17.078;2022-08-20T08:09:14;24.10;99.90
21403;DHT22;10862;51.886;17.078;2022-08-20T08:11:41;24.20;99.90
21403;DHT22;10862;51.886;17.078;2022-08-20T08:14:07;24.20;99.90
21403;DHT22;10862;51.886;17.078;2022-08-20T08:16:34;23.90;99.90
21403;DHT22;10862;51.886;17.078;2022-08-20T08:19:00;24.00;99.90
21403;DHT22;10862;51.886;17.078;2022-08-20T08:21:26;24.10;99.90
21403;DHT22;10862;51.886;17.078;2022-08-20T08:23:53;24.10;99.90
21403;DHT22;10862;51.886;17.078;2022-08-20T08:26:19;24.00;99.90
21403;DHT22;10862;51.886;17.078;2022-08-20T08:28:45;24.10;99.90
21403;DHT22;10862;51.886;17.078;2022-08-20T08:31:11;24.10;99.90
21403;DHT22;10862;51.886;17.078;2022-08-20T08:33:36;23.90;99.90
21403;DHT22;10862;51.886;17.078;2022-08-20T08:36:04;23.90;99.90
21403;DHT22;10862;51.886;17.078;2022-08-20T08:38:33;24.20;99.90
21403;DHT22;10862;51.886;17.078;2022-08-20T08:41:42;24.30;99.90
21403;DHT22;10862;51.886;17.078;2022-08-20T08:43:49;24.40;99.90
21403;DHT22;10862;51.886;17.078;2022-08-20T08:46:18;24.60;99.90
21403;DHT22;10862;51.886;17.078;2022-08-20T08:48:47;24.70;99.90
21403;DHT22;10862;51.886;17.078;2022-08-20T08:51:14;24.40;99.90
21403;DHT22;10862;51.886;17.078;2022-08-20T08:53:50;24.40;99.90
21403;DHT22;10862;51.886;17.078;2022-08-20T08:56:29;24.50;99.90
21403;DHT22;10862;51.886;17.078;2022-08-20T08:58:59;24.70;99.90
21403;DHT22;10862;51.886;17.078;2022-08-20T09:01:26;24.90;99.90
21403;DHT22;10862;51.886;17.078;2022-08-20T09:03:52;24.90;99.90
21403;DHT22;10862;51.886;17.078;2022-08-20T09:06:19;24.70;99.90
21403;DHT22;10862;51.886;17.078;2022-08-20T09:08:48;24.90;99.90
21403;DHT22;10862;51.886;17.078;2022-08-20T09:11:14;25.00;99.90
21403;DHT22;10862;51.886;17.078;2022-08-20T09:13:40;25.10;99.90
21403;DHT22;10862;51.886;17.078;2022-08-20T09:16:07;25.20;99.90
21403;DHT22;10862;51.886;17.078;2022-08-20T09:18:33;25.30;99.90
21403;DHT22;10862;51.886;17.078;2022-08-20T09:20:59;25.40;99.90
21403;DHT22;10862;51.886;17.078;2022-08-20T09:23:24;25.30;99.90
21403;DHT22;10862;51.886;17.078;2022-08-20T09:25:50;25.40;99.90
21403;DHT22;10862;51.886;17.078;2022-08-20T09:28:15;25.20;99.90
21403;DHT22;10862;51.886;17.078;2022-08-20T09:30:41;25.20;99.90
21403;DHT22;10862;51.886;17.078;2022-08-20T09:33:07;25.20;99.90
21403;DHT22;10862;51.886;17.078;2022-08-20T09:35:32;25.30;99.90
21403;DHT22;10862;51.886;17.078;2022-08-20T09:37:59;25.50;99.90
21403;DHT22;10862;51.886;17.078;2022-08-20T09:40:24;25.50;99.90
21403;DHT22;10862;51.886;17.078;2022-08-20T09:42:49;25.60;99.90
21403;DHT22;10862;51.886;17.078;2022-08-20T09:45:16;25.70;99.90
21403;DHT22;10862;51.886;17.078;2022-08-20T09:47:41;25.70;99.90
21403;DHT22;10862;51.886;17.078;2022-08-20T09:50:07;25.70;99.90
21403;DHT22;10862;51.886;17.078;2022-08-20T09:52:43;26.20;99.90
21403;DHT22;10862;51.886;17.078;2022-08-20T09:55:32;26.00;99.90
21403;DHT22;10862;51.886;17.078;2022-08-20T09:57:59;25.90;99.90
21403;DHT22;10862;51.886;17.078;2022-08-20T10:00:25;25.70;99.90
21403;DHT22;10862;51.886;17.078;2022-08-20T10:02:50;26.00;99.90
21403;DHT22;10862;51.886;17.078;2022-08-20T10:05:16;26.00;99.90
21403;DHT22;10862;51.886;17.078;2022-08-20T10:07:42;26.30;99.90
21403;DHT22;10862;51.886;17.078;2022-08-20T10:10:09;26.50;99.90
21403;DHT22;10862;51.886;17.078;2022-08-20T10:12:35;26.30;99.90
21403;DHT22;10862;51.886;17.078;2022-08-20T10:15:00;26.80;99.90
21403;DHT22;10862;51.886;17.078;2022-08-20T10:17:26;27.30;99.90
21403;DHT22;10862;51.886;17.078;2022-08-20T10:19:51;27.00;99.90
21403;DHT22;10862;51.886;17.078;2022-08-20T10:22:17;26.80;99.90
21403;DHT22;10862;51.886;17.078;2022-08-20T10:24:42;26.90;99.90
21403;DHT22;10862;51.886;17.078;2022-08-20T10:27:08;26.90;99.90
21403;DHT22;10862;51.886;17.078;2022-08-20T10:29:33;27.10;99.90
21403;DHT22;10862;51.886;17.078;2022-08-20T10:32:13;26.70;99.90
21403;DHT22;10862;51.886;17.078;2022-08-20T10:34:39;26.60;99.90
21403;DHT22;10862;51.886;17.078;2022-08-20T10:37:05;26.50;99.90
21403;DHT22;10862;51.886;17.078;2022-08-20T10:39:31;26.60;99.90
21403;DHT22;10862;51.886;17.078;2022-08-20T10:41:57;26.90;99.90
21403;DHT22;10862;51.886;17.078;2022-08-20T10:44:22;26.80;99.90
21403;DHT22;10862;51.886;17.078;2022-08-20T10:46:48;26.90;99.90
21403;DHT22;10862;51.886;17.078;2022-08-20T10:49:13;26.90;99.90
21403;DHT22;10862;51.886;17.078;2022-08-20T10:51:39;27.00;99.90
21403;DHT22;10862;51.886;17.078;2022-08-20T10:54:04;27.00;99.90
21403;DHT22;10862;51.886;17.078;2022-08-20T10:56:30;27.00;99.90
21403;DHT22;10862;51.886;17.078;2022-08-20T10:58:55;27.00;99.90
21403;DHT22;10862;51.886;17.078;2022-08-20T11:01:21;27.40;99.90
21403;DHT22;10862;51.886;17.078;2022-08-20T11:03:46;27.90;99.90
21403;DHT22;10862;51.886;17.078;2022-08-20T11:06:12;27.70;99.90
21403;DHT22;10862;51.886;17.078;2022-08-20T11:08:37;27.40;99.90
21403;DHT22;10862;51.886;17.078;2022-08-20T11:11:03;27.60;99.90
21403;DHT22;10862;51.886;17.078;2022-08-20T11:13:29;28.00;99.90
21403;DHT22;10862;51.886;17.078;2022-08-20T11:15:55;28.20;99.90
21403;DHT22;10862;51.886;17.078;2022-08-20T11:18:20;28.50;99.90
21403;DHT22;10862;51.886;17.078;2022-08-20T11:20:46;28.70;99.90
21403;DHT22;10862;51.886;17.078;2022-08-20T11:23:11;29.00;99.90
21403;DHT22;10862;51.886;17.078;2022-08-20T11:25:37;28.80;99.90
21403;DHT22;10862;51.886;17.078;2022-08-20T11:28:02;28.90;99.90
21403;DHT22;10862;51.886;17.078;2022-08-20T11:30:30;29.10;99.90
21403;DHT22;10862;51.886;17.078;2022-08-20T11:32:57;29.10;99.90
21403;DHT22;10862;51.886;17.078;2022-08-20T11:35:23;28.40;99.90
21403;DHT22;10862;51.886;17.078;2022-08-20T11:37:50;28.60;99.90
21403;DHT22;10862;51.886;17.078;2022-08-20T11:40:16;28.60;99.90
21403;DHT22;10862;51.886;17.078;2022-08-20T11:42:41;28.10;99.90
21403;DHT22;10862;51.886;17.078;2022-08-20T11:45:07;28.00;99.90
21403;DHT22;10862;51.886;17.078;2022-08-20T11:47:33;27.70;99.90
21403;DHT22;10862;51.886;17.078;2022-08-20T11:50:02;27.80;99.90
21403;DHT22;10862;51.886;17.078;2022-08-20T11:52:28;28.30;99.90
21403;DHT22;10862;51.886;17.078;2022-08-20T11:54:54;28.00;99.90
21403;DHT22;10862;51.886;17.078;2022-08-20T11:57:20;28.30;99.90
21403;DHT22;10862;51.886;17.078;2022-08-20T11:59:47;28.30;99.90
21403;DHT22;10862;51.886;17.078;2022-08-20T12:02:13;28.10;99.90
21403;DHT22;10862;51.886;17.078;2022-08-20T12:04:38;27.70;99.90
21403;DHT22;10862;51.886;17.078;2022-08-20T12:07:11;28.30;99.90
21403;DHT22;10862;51.886;17.078;2022-08-20T12:09:36;28.60;99.90
21403;DHT22;10862;51.886;17.078;2022-08-20T12:12:02;29.40;99.90
21403;DHT22;10862;51.886;17.078;2022-08-20T12:14:27;29.80;99.90
21403;DHT22;10862;51.886;17.078;2022-08-20T12:16:53;30.10;99.90
21403;DHT22;10862;51.886;17.078;2022-08-20T12:19:18;29.90;99.90
21403;DHT22;10862;51.886;17.078;2022-08-20T12:21:44;29.40;99.90
21403;DHT22;10862;51.886;17.078;2022-08-20T12:24:09;29.00;99.90
21403;DHT22;10862;51.886;17.078;2022-08-20T12:26:35;28.80;99.90
21403;DHT22;10862;51.886;17.078;2022-08-20T12:29:00;28.80;99.90
21403;DHT22;10862;51.886;17.078;2022-08-20T12:31:26;28.90;99.90
21403;DHT22;10862;51.886;17.078;2022-08-20T12:33:51;28.80;99.90
21403;DHT22;10862;51.886;17.078;2022-08-20T12:36:17;29.20;99.90
21403;DHT22;10862;51.886;17.078;2022-08-20T12:38:42;29.10;99.90
21403;DHT22;10862;51.886;17.078;2022-08-20T12:41:08;29.00;99.90
21403;DHT22;10862;51.886;17.078;2022-08-20T12:43:33;28.50;99.90
21403;DHT22;10862;51.886;17.078;2022-08-20T12:45:59;28.10;99.90
21403;DHT22;10862;51.886;17.078;2022-08-20T12:48:24;27.90;99.90
21403;DHT22;10862;51.886;17.078;2022-08-20T12:50:50;28.30;99.90
21403;DHT22;10862;51.886;17.078;2022-08-20T12:53:17;28.30;99.90
21403;DHT22;10862;51.886;17.078;2022-08-20T12:55:43;29.00;99.90
21403;DHT22;10862;51.886;17.078;2022-08-20T12:58:08;30.00;99.90
21403;DHT22;10862;51.886;17.078;2022-08-20T13:00:38;30.40;99.90
21403;DHT22;10862;51.886;17.078;2022-08-20T13:03:08;30.40;99.90
21403;DHT22;10862;51.886;17.078;2022-08-20T13:05:34;29.60;99.90
21403;DHT22;10862;51.886;17.078;2022-08-20T13:08:00;30.10;99.90
21403;DHT22;10862;51.886;17.078;2022-08-20T13:10:27;30.50;99.90
21403;DHT22;10862;51.886;17.078;2022-08-20T13:12:53;30.10;99.90
21403;DHT22;10862;51.886;17.078;2022-08-20T13:15:19;30.00;99.90
21403;DHT22;10862;51.886;17.078;2022-08-20T13:17:44;29.70;99.90
21403;DHT22;10862;51.886;17.078;2022-08-20T13:20:14;29.70;99.90
21403;DHT22;10862;51.886;17.078;2022-08-20T13:22:40;30.50;99.60
21403;DHT22;10862;51.886;17.078;2022-08-20T13:25:06;30.30;98.50
21403;DHT22;10862;51.886;17.078;2022-08-20T13:27:32;29.90;99.90
21403;DHT22;10862;51.886;17.078;2022-08-20T13:29:58;30.00;99.90
21403;DHT22;10862;51.886;17.078;2022-08-20T13:32:23;31.10;98.00
21403;DHT22;10862;51.886;17.078;2022-08-20T13:34:49;31.60;94.10
21403;DHT22;10862;51.886;17.078;2022-08-20T13:37:15;31.70;92.00
21403;DHT22;10862;51.886;17.078;2022-08-20T13:39:41;31.40;91.90
21403;DHT22;10862;51.886;17.078;2022-08-20T13:42:07;31.30;91.90
21403;DHT22;10862;51.886;17.078;2022-08-20T13:44:33;30.80;95.40
21403;DHT22;10862;51.886;17.078;2022-08-20T13:46:59;31.10;93.20
21403;DHT22;10862;51.886;17.078;2022-08-20T13:49:25;30.90;95.00
21403;DHT22;10862;51.886;17.078;2022-08-20T13:51:51;31.30;93.90
21403;DHT22;10862;51.886;17.078;2022-08-20T13:54:16;30.70;94.20
21403;DHT22;10862;51.886;17.078;2022-08-20T13:56:42;30.10;95.50
21403;DHT22;10862;51.886;17.078;2022-08-20T13:59:07;29.80;97.00
21403;DHT22;10862;51.886;17.078;2022-08-20T14:01:33;30.00;96.40
21403;DHT22;10862;51.886;17.078;2022-08-20T14:03:58;29.90;95.90
21403;DHT22;10862;51.886;17.078;2022-08-20T14:06:24;29.90;96.90
21403;DHT22;10862;51.886;17.078;2022-08-20T14:08:49;29.80;97.20
21403;DHT22;10862;51.886;17.078;2022-08-20T14:11:15;30.00;96.40
21403;DHT22;10862;51.886;17.078;2022-08-20T14:13:41;29.80;95.30
21403;DHT22;10862;51.886;17.078;2022-08-20T14:16:06;29.60;96.70
21403;DHT22;10862;51.886;17.078;2022-08-20T14:18:32;29.60;97.00
21403;DHT22;10862;51.886;17.078;2022-08-20T14:20:57;29.50;97.60
21403;DHT22;10862;51.886;17.078;2022-08-20T14:23:23;29.60;96.70
21403;DHT22;10862;51.886;17.078;2022-08-20T14:25:48;29.40;97.60
21403;DHT22;10862;51.886;17.078;2022-08-20T14:28:16;29.10;97.90
21403;DHT22;10862;51.886;17.078;2022-08-20T14:30:42;28.90;99.00
21403;DHT22;10862;51.886;17.078;2022-08-20T14:33:10;28.90;99.80
21403;DHT22;10862;51.886;17.078;2022-08-20T14:35:36;29.00;99.90
21403;DHT22;10862;51.886;17.078;2022-08-20T14:38:02;28.60;99.90
21403;DHT22;10862;51.886;17.078;2022-08-20T14:40:28;28.40;99.90
21403;DHT22;10862;51.886;17.078;2022-08-20T14:42:53;28.20;99.90
21403;DHT22;10862;51.886;17.078;2022-08-20T14:45:20;28.30;99.90
21403;DHT22;10862;51.886;17.078;2022-08-20T14:47:47;28.50;99.90
21403;DHT22;10862;51.886;17.078;2022-08-20T14:50:14;28.60;99.90
21403;DHT22;10862;51.886;17.078;2022-08-20T14:52:40;28.80;99.90
21403;DHT22;10862;51.886;17.078;2022-08-20T14:55:07;28.90;99.90
21403;DHT22;10862;51.886;17.078;2022-08-20T14:57:33;29.00;99.90
21403;DHT22;10862;51.886;17.078;2022-08-20T14:59:59;28.70;99.90
21403;DHT22;10862;51.886;17.078;2022-08-20T15:02:24;28.40;99.90
21403;DHT22;10862;51.886;17.078;2022-08-20T15:04:50;28.60;99.90
21403;DHT22;10862;51.886;17.078;2022-08-20T15:07:31;28.10;99.90
21403;DHT22;10862;51.886;17.078;2022-08-20T15:09:57;28.30;99.90
21403;DHT22;10862;51.886;17.078;2022-08-20T15:12:22;28.40;99.90
21403;DHT22;10862;51.886;17.078;2022-08-20T15:14:48;28.30;99.90
21403;DHT22;10862;51.886;17.078;2022-08-20T15:17:20;28.10;99.90
21403;DHT22;10862;51.886;17.078;2022-08-20T15:19:47;28.10;99.90